Time;durP1;ratioP1;P1;durP2;ratioP2;P2;SDS_P1;SDS_P2;PMS_P1;PMS_P2;Temp;Humidity;BMP_temperature;BMP_pressure;BME280_temperature;BME280_humidity;BME280_pressure;Samples;Min_cycle;Max_cycle;Signal;HPM_P1;HPM_P2
2023/06/20 00:06:03;;;;;;;4.60;4.13;;;;;;;20.92;76.43;101070.63;21067053;28;20055;-70
2023/06/20 00:16:05;;;;;;;4.22;3.83;;;;;;;20.92;76.42;101069.78;21032583;28;20135;-70
2023/06/20 00:26:06;;;;;;;4.43;3.95;;;;;;;20.89;76.47;101068.22;21048363;28;20048;-70
2023/06/20 00:36:08;;;;;;;4.57;4.10;;;;;;;20.89;76.43;101068.22;21028742;28;20059;-69
2023/06/20 00:46:10;;;;;;;4.97;3.83;;;;;;;20.88;76.64;101061.13;21048948;28;20052;-70
2023/06/20 00:56:12;;;;;;;4.35;3.80;;;;;;;20.87;76.66;101056.72;21062698;28;20048;-70
2023/06/20 01:06:34;;;;;;;4.53;3.85;;;;;;;20.86;76.54;101057.72;21080340;28;20471;-70
2023/06/20 01:16:42;;;;;;;5.75;4.32;;;;;;;20.84;76.58;101054.31;21061730;28;20451;-70
2023/06/20 01:26:57;;;;;;;4.15;3.55;;;;;;;20.83;76.72;101041.78;21078621;28;20052;-70
2023/06/20 01:37:01;;;;;;;4.25;3.85;;;;;;;20.82;76.80;101040.94;21033249;28;20048;-70
2023/06/20 01:47:04;;;;;;;4.28;3.75;;;;;;;20.82;76.81;101029.25;21058715;28;20455;-70
2023/06/20 01:57:07;;;;;;;4.30;3.90;;;;;;;20.81;76.49;101035.69;21041738;28;20044;-70
2023/06/20 02:07:11;;;;;;;3.83;3.43;;;;;;;20.73;76.65;101031.81;21040285;28;20047;-70
2023/06/20 02:17:13;;;;;;;4.40;3.80;;;;;;;20.78;76.83;101033.25;21018658;28;20496;-70
2023/06/20 02:27:15;;;;;;;4.25;3.85;;;;;;;20.77;77.13;101042.34;20958120;28;20123;-70
2023/06/20 02:37:17;;;;;;;4.85;4.38;;;;;;;20.76;77.12;101037.94;20957178;28;20048;-69
2023/06/20 02:48:00;;;;;;;4.30;3.90;;;;;;;20.73;77.24;101042.66;20962492;28;20131;-70
2023/06/20 02:58:07;;;;;;;4.38;3.97;;;;;;;20.73;77.40;101047.22;20866600;28;20057;-70
2023/06/20 03:08:16;;;;;;;4.60;4.18;;;;;;;20.71;77.56;101039.25;20926770;28;20055;-70
2023/06/20 03:18:18;;;;;;;4.95;4.45;;;;;;;20.69;77.77;101043.94;20948361;28;20045;-69
2023/06/20 03:28:22;;;;;;;5.25;4.63;;;;;;;20.69;77.69;101035.84;20929734;28;20036;-69
2023/06/20 03:38:26;;;;;;;4.65;4.25;;;;;;;20.68;77.88;101020.59;20940435;28;20440;-69
2023/06/20 03:48:28;;;;;;;5.55;4.60;;;;;;;20.68;78.10;101017.06;20928035;28;20049;-70
2023/06/20 03:58:31;;;;;;;5.05;4.55;;;;;;;20.67;78.10;101024.31;20916943;28;20037;-70
2023/06/20 04:08:33;;;;;;;4.85;4.35;;;;;;;20.65;78.17;101012.81;20880552;28;20072;-70
2023/06/20 04:18:34;;;;;;;5.13;4.63;;;;;;;20.62;78.40;101002.28;20911944;28;20041;-70
2023/06/20 04:28:36;;;;;;;5.03;4.53;;;;;;;20.66;78.45;101002.84;20947517;28;20048;-70
2023/06/20 04:38:39;;;;;;;4.97;4.38;;;;;;;20.65;78.54;101011.97;20937541;28;22774;-69
2023/06/20 04:48:42;;;;;;;4.95;4.43;;;;;;;20.66;78.81;100994.72;20913130;28;20041;-70
2023/06/20 04:58:45;;;;;;;5.95;5.35;;;;;;;20.65;79.44;101010.09;20933954;28;20132;-67
2023/06/20 05:08:47;;;;;;;9.48;7.72;;;;;;;20.57;80.94;101002.75;20968907;28;20159;-69
2023/06/20 05:18:48;;;;;;;8.85;7.95;;;;;;;20.48;82.49;101006.34;20960559;28;20157;-69
2023/06/20 05:28:51;;;;;;;7.40;6.60;;;;;;;20.42;83.45;100997.00;20935628;28;20123;-69
2023/06/20 05:38:52;;;;;;;8.57;7.13;;;;;;;20.40;83.79;100999.00;20959271;28;20052;-69
2023/06/20 05:48:55;;;;;;;7.18;6.47;;;;;;;20.39;84.03;100997.31;20961071;28;20515;-69
2023/06/20 05:58:57;;;;;;;8.13;7.22;;;;;;;20.39;84.28;101007.25;20946358;28;21708;-69
2023/06/20 06:08:59;;;;;;;9.20;7.75;;;;;;;20.40;84.83;101006.25;20946391;28;20155;-69
2023/06/20 06:19:00;;;;;;;7.93;7.13;;;;;;;20.40;85.61;101004.41;20950951;28;20072;-69
2023/06/20 06:29:04;;;;;;;8.95;7.22;;;;;;;20.41;85.95;100995.31;20967639;28;20097;-68
2023/06/20 06:39:07;;;;;;;8.40;6.68;;;;;;;20.42;84.52;100986.19;20948517;28;20409;-68
2023/06/20 06:49:10;;;;;;;6.35;5.75;;;;;;;20.44;84.62;100977.91;20913365;28;20056;-68
2023/06/20 06:59:12;;;;;;;6.65;5.88;;;;;;;20.54;85.28;100994.94;20938688;28;20086;-68
2023/06/20 07:09:13;;;;;;;5.35;4.85;;;;;;;20.60;85.31;100982.66;20917220;28;20049;-67
2023/06/20 07:19:15;;;;;;;9.43;5.22;;;;;;;20.66;85.01;100986.63;20966441;28;20049;-69
2023/06/20 07:29:17;;;;;;;6.43;5.32;;;;;;;20.71;85.97;100987.84;20955691;28;20048;-69
2023/06/20 07:39:19;;;;;;;6.25;5.20;;;;;;;20.75;85.07;100974.00;20935533;28;20082;-68
2023/06/20 07:49:21;;;;;;;8.30;5.40;;;;;;;20.77;83.91;100966.59;20950258;28;20578;-68
2023/06/20 07:59:22;;;;;;;5.35;4.57;;;;;;;20.78;83.67;100962.91;20983341;28;20044;-69
2023/06/20 08:09:24;;;;;;;5.78;5.18;;;;;;;20.80;84.83;100959.06;20952305;28;20061;-68
2023/06/20 08:19:25;;;;;;;5.78;5.05;;;;;;;20.88;85.82;100947.47;20958507;28;20519;-69
2023/06/20 08:29:27;;;;;;;6.07;4.97;;;;;;;21.24;85.82;100935.75;21019422;28;20063;-68
2023/06/20 08:39:29;;;;;;;6.45;4.82;;;;;;;21.62;84.95;100930.06;20951371;28;20060;-70
2023/06/20 08:49:31;;;;;;;7.10;4.97;;;;;;;21.89;83.76;100912.81;20954311;28;20041;-70
2023/06/20 08:59:36;;;;;;;5.57;4.97;;;;;;;22.09;82.43;100907.94;20920675;28;20049;-69
2023/06/20 09:09:39;;;;;;;5.15;4.68;;;;;;;22.02;83.48;100910.47;20941557;28;20057;-70
2023/06/20 09:19:45;;;;;;;5.88;4.70;;;;;;;21.97;83.86;100901.13;20958544;28;20072;-70
2023/06/20 09:42:13;;;;;;;5.45;4.18;;;;;;;21.90;82.88;100892.81;20933630;28;20029;-70
2023/06/20 09:52:15;;;;;;;5.55;4.85;;;;;;;21.91;83.01;100890.94;20961369;28;20072;-70
2023/06/20 10:02:23;;;;;;;4.60;4.20;;;;;;;21.85;83.04;100877.03;20947846;28;20041;-69
2023/06/20 10:12:26;;;;;;;4.90;4.45;;;;;;;21.91;83.25;100874.69;20961537;28;20044;-68
2023/06/20 10:22:38;;;;;;;5.05;4.60;;;;;;;21.91;82.69;100858.44;20960733;28;20098;-68
2023/06/20 10:33:09;;;;;;;4.57;4.18;;;;;;;21.92;82.21;100838.44;20968919;28;20044;-67
2023/06/20 10:43:16;;;;;;;7.10;3.92;;;;;;;21.93;81.54;100853.69;20944916;28;20496;-68
2023/06/20 10:53:18;;;;;;;4.28;3.88;;;;;;;21.95;81.82;100846.25;20945190;28;20540;-67
2023/06/20 11:03:21;;;;;;;4.28;3.88;;;;;;;21.92;82.06;100816.75;20923048;28;20071;-68
2023/06/20 11:13:23;;;;;;;5.27;4.67;;;;;;;21.93;80.91;100819.31;21038134;28;20132;-67
2023/06/20 11:23:34;;;;;;;5.38;4.55;;;;;;;21.90;80.78;100818.78;20978237;28;20550;-67
2023/06/20 11:33:37;;;;;;;6.60;3.97;;;;;;;21.84;81.01;100804.88;20949150;28;20107;-67
2023/06/20 11:43:40;;;;;;;4.55;4.05;;;;;;;21.83;81.78;100799.63;20945185;28;20072;-67
2023/06/20 11:53:42;;;;;;;4.47;3.70;;;;;;;21.83;82.43;100803.19;20912600;28;20048;-67
2023/06/20 12:03:45;;;;;;;4.20;3.80;;;;;;;21.89;82.01;100785.44;20945337;28;20061;-67
2023/06/20 12:13:47;;;;;;;4.78;4.13;;;;;;;21.87;82.01;100768.47;20938804;28;20045;-67
2023/06/20 12:23:49;;;;;;;6.72;4.40;;;;;;;21.91;84.81;100769.84;20948587;28;20584;-66
2023/06/20 12:33:51;;;;;;;6.70;4.20;;;;;;;21.98;85.67;100775.44;20957375;28;20075;-66
2023/06/20 12:43:52;;;;;;;6.15;5.00;;;;;;;22.04;86.44;100782.91;20961641;28;20476;-67
2023/06/20 12:53:54;;;;;;;4.78;4.28;;;;;;;22.09;86.45;100760.72;20960756;28;20049;-67
2023/06/20 13:03:56;;;;;;;5.47;4.25;;;;;;;22.06;85.52;100758.34;20954472;28;20409;-67
2023/06/20 13:13:57;;;;;;;4.60;4.18;;;;;;;22.02;83.53;100752.41;20959584;28;20458;-67
2023/06/20 13:23:59;;;;;;;4.53;4.13;;;;;;;21.97;83.33;100742.09;20948660;28;20052;-68
2023/06/20 13:34:10;;;;;;;4.68;4.28;;;;;;;21.95;83.56;100721.56;20923578;28;20044;-67
2023/06/20 13:44:13;;;;;;;4.70;4.30;;;;;;;21.96;84.44;100707.00;20937539;28;20520;-67
2023/06/20 13:54:15;;;;;;;4.82;4.03;;;;;;;21.98;84.81;100688.69;20946859;28;20048;-68
2023/06/20 14:04:16;;;;;;;4.53;4.10;;;;;;;21.95;85.60;100676.34;20957758;28;20056;-68
2023/06/20 14:14:18;;;;;;;4.43;3.90;;;;;;;22.02;86.28;100671.09;20956169;28;20444;-68
2023/06/20 14:24:19;;;;;;;4.53;4.13;;;;;;;22.03;86.58;100664.66;20936668;28;20560;-66
2023/06/20 14:34:21;;;;;;;4.68;4.28;;;;;;;22.04;86.34;100652.78;20911849;28;20067;-69
2023/06/20 14:44:23;;;;;;;5.35;4.18;;;;;;;22.04;86.79;100652.78;20961769;28;20544;-71
2023/06/20 14:54:27;;;;;;;4.95;3.53;;;;;;;22.07;86.71;100649.72;20923143;28;20087;-71
2023/06/20 15:04:28;;;;;;;4.45;4.03;;;;;;;22.11;87.68;100640.28;20915228;28;20059;-69
2023/06/20 15:14:30;;;;;;;4.50;4.10;;;;;;;22.12;87.33;100635.69;20915240;28;20127;-66
2023/06/20 15:24:33;;;;;;;5.78;5.28;;;;;;;22.21;90.60;100617.53;20970717;28;20556;-68
2023/06/20 15:34:35;;;;;;;7.00;5.30;;;;;;;22.32;92.24;100609.03;20958991;28;20048;-68
2023/06/20 15:44:39;;;;;;;5.63;4.80;;;;;;;22.32;92.36;100592.78;20920464;28;20492;-69
2023/06/20 15:54:40;;;;;;;6.13;5.00;;;;;;;22.35;92.67;100578.03;20929262;28;20040;-71
2023/06/20 16:04:42;;;;;;;5.28;4.53;;;;;;;22.36;92.79;100580.56;20908472;28;20045;-70
2023/06/20 16:14:44;;;;;;;5.95;5.10;;;;;;;22.33;93.01;100566.50;20898898;28;20266;-67
2023/06/20 16:24:46;;;;;;;6.22;4.60;;;;;;;22.26;92.84;100563.63;20940998;28;20045;-68
2023/06/20 16:34:48;;;;;;;5.00;4.50;;;;;;;22.21;92.82;100550.59;20992128;28;20049;-68
2023/06/20 16:44:49;;;;;;;6.72;4.88;;;;;;;22.16;92.93;100551.13;20936980;28;20496;-68
2023/06/20 16:54:52;;;;;;;5.22;4.53;;;;;;;22.14;92.97;100564.00;20946104;28;20044;-68
2023/06/20 17:04:53;;;;;;;4.80;4.40;;;;;;;22.09;92.39;100555.53;20975481;28;20036;-69
2023/06/20 17:14:57;;;;;;;4.60;4.20;;;;;;;22.07;92.29;100557.56;20973262;28;20044;-69
2023/06/20 17:24:58;;;;;;;4.87;4.37;;;;;;;22.02;92.68;100560.81;20946564;28;20466;-68
2023/06/20 17:35:00;;;;;;;4.78;4.28;;;;;;;22.00;92.94;100579.09;20951845;28;20063;-68
2023/06/20 17:45:04;;;;;;;4.03;3.63;;;;;;;21.98;93.90;100585.72;20919798;28;20472;-68
2023/06/20 17:55:06;;;;;;;4.73;4.33;;;;;;;21.97;94.29;100649.94;20937337;28;20508;-69
2023/06/20 18:05:07;;;;;;;4.55;4.15;;;;;;;21.95;93.96;100686.34;20958300;28;20052;-67
2023/06/20 18:15:09;;;;;;;5.18;3.80;;;;;;;21.98;95.44;100686.00;20951733;28;20405;-66
2023/06/20 18:25:11;;;;;;;4.15;3.33;;;;;;;22.02;97.00;100714.44;20943120;28;20049;-65
2023/06/20 18:35:13;;;;;;;4.30;3.78;;;;;;;22.04;97.23;100708.88;20996007;28;20098;-65
2023/06/20 18:45:14;;;;;;;4.95;3.63;;;;;;;21.97;96.42;100684.28;20942072;28;20126;-66
2023/06/20 18:55:16;;;;;;;4.32;3.20;;;;;;;21.89;96.26;100717.69;20908391;28;20052;-66
2023/06/20 19:05:17;;;;;;;3.60;3.20;;;;;;;21.83;96.55;100734.59;20964104;28;20052;-66
2023/06/20 19:15:19;;;;;;;3.42;3.10;;;;;;;21.79;96.02;100717.81;20975129;28;20045;-66
2023/06/20 19:25:21;;;;;;;3.15;2.85;;;;;;;21.75;95.42;100721.03;20985143;28;20044;-66
2023/06/20 19:35:22;;;;;;;3.28;2.95;;;;;;;21.72;95.47;100698.66;20985527;28;20083;-66
2023/06/20 19:45:24;;;;;;;4.72;2.80;;;;;;;21.68;94.89;100700.03;20985162;28;20390;-66
2023/06/20 19:55:34;;;;;;;3.17;2.83;;;;;;;21.66;94.77;100695.81;20984272;28;20055;-66
2023/06/20 20:05:36;;;;;;;2.90;2.53;;;;;;;21.64;95.61;100692.38;20995307;28;20875;-66
2023/06/20 20:15:38;;;;;;;2.63;2.33;;;;;;;21.63;94.87;100701.50;21066863;28;20127;-66
2023/06/20 20:25:39;;;;;;;2.45;2.25;;;;;;;21.61;95.63;100715.22;21066890;28;20082;-66
2023/06/20 20:35:41;;;;;;;2.88;2.28;;;;;;;21.57;95.08;100708.44;21066189;28;20059;-66
2023/06/20 20:45:42;;;;;;;2.78;1.98;;;;;;;21.58;95.41;100715.56;21042682;28;20634;-66
2023/06/20 20:55:44;;;;;;;2.55;2.28;;;;;;;21.55;96.24;100724.84;20955274;28;20132;-65
2023/06/20 21:05:46;;;;;;;3.30;2.70;;;;;;;21.55;99.09;100727.53;21003746;28;20074;-65
2023/06/20 21:15:47;;;;;;;3.35;2.58;;;;;;;21.54;100.00;100717.72;21011025;28;20655;-65
2023/06/20 21:25:49;;;;;;;2.72;2.30;;;;;;;21.53;100.00;100729.56;20924399;28;20080;-65
2023/06/20 21:35:50;;;;;;;4.57;2.33;;;;;;;21.51;100.00;100749.72;20916304;28;20095;-65
2023/06/20 21:45:52;;;;;;;3.08;2.15;;;;;;;21.49;99.48;100776.97;20962970;28;20067;-65
2023/06/20 21:55:53;;;;;;;3.40;2.60;;;;;;;21.46;99.32;100761.03;20964549;28;20044;-65
2023/06/20 22:05:55;;;;;;;2.72;2.38;;;;;;;21.44;98.94;100763.06;20962014;28;20041;-65
2023/06/20 22:15:57;;;;;;;3.17;2.28;;;;;;;21.42;99.38;100755.09;20987632;28;20049;-65
2023/06/20 22:25:58;;;;;;;2.65;2.30;;;;;;;21.41;99.52;100763.41;20966355;28;20048;-65
2023/06/20 22:36:00;;;;;;;2.67;2.40;;;;;;;21.41;99.85;100774.22;20958249;28;20081;-65
2023/06/20 22:46:04;;;;;;;2.80;2.42;;;;;;;21.39;99.55;100787.09;20958301;28;20048;-65
2023/06/20 22:56:05;;;;;;;2.30;2.10;;;;;;;21.38;99.61;100798.94;20972533;28;20044;-65
2023/06/20 23:06:07;;;;;;;2.80;2.30;;;;;;;21.35;99.14;100788.41;20964631;28;20535;-65
2023/06/20 23:16:09;;;;;;;3.78;3.22;;;;;;;21.34;99.64;100778.59;20948876;28;20074;-65
2023/06/20 23:26:11;;;;;;;3.17;2.88;;;;;;;21.34;99.76;100789.44;20970078;28;20045;-65
2023/06/20 23:36:15;;;;;;;3.40;2.60;;;;;;;21.31;100.00;100801.41;20966585;28;20062;-65
2023/06/20 23:46:18;;;;;;;3.10;2.70;;;;;;;21.32;100.00;100818.53;20965545;28;20067;-65
2023/06/20 23:56:21;;;;;;;3.33;3.03;;;;;;;21.30;100.00;100824.97;20976125;28;20094;-65
